Nearby METAR Reports

 

K9MN - St Mary Hospital, Minnesota, USA
Distance from station: SW 3mi, 4km
Updated: 03/28/2020 9:16am
Overcast
Overcast
 Wind from ENE
Wind: ENE 13 mph , 20 km/h, Gust: 25 mph , 41 km/h
Temperature: 45°F , 7°C
Wind Chill: 39°F , 4°C
Dew Point: 41°F , 5°C
Humidity: 87%
Barometer: 29.68 inHg , 1005.1 hPa
Clouds: Overcast
Visibility: 10 miles , 16 km
Cloud details: Overcast 900 ft
2020/03/28 14:16 K9MN 281416Z AUTO 07011G22KT 10SM OVC009 07/05 A2968 RMK AO1 T00660052
KRST - Rochester, Minnesota, USA
Distance from station: SSW 10mi, 16km
Updated: 03/28/2020 8:54am
Mist, Overcast
Mist, Overcast
 Wind from ENE
Wind: ENE 24 mph , 39 km/h, Gust: 32 mph , 52 km/h
Temperature: 43°F , 6°C
Wind Chill: 34°F , 1°C
Dew Point: 39°F , 4°C
Humidity: 87%
Barometer: 29.67 inHg , 1004.7 hPa
Summary: Mist
Clouds: Overcast
Visibility: 6 miles , 10 km
Cloud details: Overcast 600 ft
2020/03/28 13:54 KRST 281354Z 07021G28KT 6SM BR OVC006 06/04 A2967 RMK AO2 PK WND 07028/1343 SLP052 T00560039
 
KTOB - Dodge Center, Minnesota, USA
Distance from station: W 19mi, 30km
Updated: 03/28/2020 9:16am
Overcast
Overcast
 Wind from E
Wind: E 24 mph , 39 km/h, Gust: 32 mph , 52 km/h
Temperature: 43°F , 6°C
Wind Chill: 34°F , 1°C
Dew Point: 39°F , 4°C
Humidity: 87%
Barometer: 29.66 inHg , 1004.4 hPa
Clouds: Overcast
Visibility: 10 miles , 16 km
Cloud details: Overcast 1000 ft
2020/03/28 14:16 KTOB 281416Z AUTO 08021G28KT 10SM OVC010 06/04 A2966 RMK AO2 PWINO
KFKA - Preston, Minnesota, USA
Distance from station: SSE 28mi, 45km
Updated: 03/28/2020 9:15am
Mist, Overcast
Mist, Overcast
 Wind from E
Wind: E 14 mph , 22 km/h, Gust: 22 mph , 35 km/h
Temperature: 41°F , 5°C
Wind Chill: 33°F , 1°C
Dew Point: 39°F , 4°C
Humidity: 93%
Barometer: 29.69 inHg , 1005.4 hPa
Summary: Mist
Clouds: Overcast
Visibility: 4 miles , 6 km
Cloud details: Overcast 300 ft
2020/03/28 14:15 KFKA 281415Z AUTO 09012G19KT 4SM BR OVC003 05/04 A2969 RMK AO2 T00480040
 
KAUM - Austin Muni, Minnesota, USA
Distance from station: SW 35mi, 57km
Updated: 03/28/2020 9:16am
Mist, Overcast
Mist, Overcast
 Wind from E
Wind: E 13 mph , 20 km/h
Temperature: 45°F , 7°C
Wind Chill: 39°F , 4°C
Dew Point: 45°F , 7°C
Humidity: 100%
Barometer: 29.68 inHg , 1005.1 hPa
Summary: Mist
Clouds: Overcast
Visibility: 3 miles , 5 km
Cloud details: Overcast 500 ft
2020/03/28 14:16 KAUM 281416Z AUTO 10011KT 3SM BR OVC005 07/07 A2968 RMK AO2
KONA - Winona Muni, Minnesota, USA
Distance from station: E 37mi, 59km
Updated: 03/28/2020 9:16am
Overcast
Overcast
 Wind from E
Wind: E 12 mph , 19 km/h, Gust: 22 mph , 35 km/h
Temperature: 45°F , 7°C
Wind Chill: 39°F , 4°C
Dew Point: 43°F , 6°C
Humidity: 93%
Barometer: 29.73 inHg , 1006.8 hPa
Clouds: Overcast
Visibility: 10 miles , 16 km
Cloud details: Overcast 1400 ft
2020/03/28 14:16 KONA 281416Z AUTO 10010G19KT 10SM OVC014 07/06 A2973 RMK AO2
 
KRGK - Red Wing, Minnesota, USA
Distance from station: N 38mi, 61km
Updated: 03/28/2020 9:16am
Overcast
Overcast
 Wind from E
Wind: E 17 mph , 28 km/h, Gust: 23 mph , 37 km/h
Temperature: 46°F , 8°C
Wind Chill: 39°F , 4°C
Dew Point: 39°F , 4°C
Humidity: 76%
Barometer: 29.69 inHg , 1005.4 hPa
Clouds: Overcast
Visibility: 10 miles , 16 km
Cloud details: Partly cloudy 3700 ft
Overcast 4700 ft
2020/03/28 14:16 KRGK 281416Z AUTO 09015G20KT 10SM SCT037 OVC047 08/04 A2969 RMK AO2
KOWA - Owatonna, Minnesota, USA
Distance from station: W 41mi, 65km
Updated: 03/28/2020 9:14am

 Wind from ENE
Wind: ENE 15 mph , 24 km/h, Gust: 21 mph , 33 km/h
Temperature: 45°F , 7°C
Wind Chill: 38°F , 3°C
Dew Point: 41°F , 5°C
Humidity: 87%
Barometer: 29.67 inHg , 1004.7 hPa
Visibility: 10 miles , 16 km
2020/03/28 14:14 KOWA 281414Z AUTO 06013G18KT 10SM 07/05 A2967 RMK AO2
 
KSYN - Stanton, Minnesota, USA
Distance from station: NW 42mi, 68km
Updated: 03/28/2020 9:15am
Overcast
Overcast
 Wind from ENE
Wind: ENE 16 mph , 26 km/h, Gust: 24 mph , 39 km/h
Temperature: 46°F , 8°C
Wind Chill: 39°F , 4°C
Dew Point: 41°F , 5°C
Humidity: 82%
Barometer: 29.68 inHg , 1005.1 hPa
Clouds: Overcast
Visibility: 10 miles , 16 km
Cloud details: Mostly cloudy 3000 ft
Overcast 3800 ft
2020/03/28 14:15 KSYN 281415Z AUTO 06014G21KT 10SM BKN030 OVC038 08/05 A2968 RMK AO2 T00800052
KFBL - Faribault Muni, Minnesota, USA
Distance from station: WNW 48mi, 77km
Updated: 03/28/2020 9:16am

 Wind from NNE
Wind: NNE 14 mph , 22 km/h, Gust: 18 mph , 30 km/h
Temperature: 46°F , 8°C
Wind Chill: 40°F , 4°C
Dew Point: 43°F , 6°C
Humidity: 87%
Barometer: 29.69 inHg , 1005.4 hPa
Visibility: 10 miles , 16 km
2020/03/28 14:16 KFBL 281416Z 03012G16KT 10SM 08/06 A2969 RMK AO2